Time;durP1;ratioP1;P1;durP2;ratioP2;P2;SDS_P1;SDS_P2;PMS_P1;PMS_P2;Temp;Humidity;BMP_temperature;BMP_pressure;BME280_temperature;BME280_humidity;BME280_pressure;Samples;Min_cycle;Max_cycle;Signal;HPM_P1;HPM_P2
2022/09/28 00:00:08;;;;;;;1.67;1.30;;;9.90;98.00;;;;;;5052960;28;21079;-67
2022/09/28 00:02:35;;;;;;;1.20;1.20;;;9.90;98.00;;;;;;5052929;28;20824;-67
2022/09/28 00:05:03;;;;;;;1.20;1.00;;;9.80;98.00;;;;;;5052801;28;20464;-67
2022/09/28 00:07:30;;;;;;;1.50;1.20;;;9.70;98.00;;;;;;5034035;28;20461;-67
2022/09/28 00:09:57;;;;;;;1.30;1.00;;;9.70;98.00;;;;;;5052631;28;20458;-67
2022/09/28 00:12:25;;;;;;;1.20;1.10;;;9.70;98.00;;;;;;5051735;28;20458;-67
2022/09/28 00:14:53;;;;;;;1.30;1.20;;;9.80;98.00;;;;;;5052539;28;20999;-67
2022/09/28 00:17:21;;;;;;;1.90;1.17;;;9.90;98.00;;;;;;5052564;28;20446;-66
2022/09/28 00:19:48;;;;;;;1.47;1.20;;;9.90;98.00;;;;;;5052566;28;20548;-67
2022/09/28 00:22:17;;;;;;;1.63;1.20;;;9.90;98.00;;;;;;5052501;28;20767;-67
2022/09/28 00:24:44;;;;;;;1.40;1.30;;;10.10;98.00;;;;;;5052544;28;20514;-67
2022/09/28 00:27:11;;;;;;;1.77;1.10;;;10.00;98.00;;;;;;5052403;28;20544;-67
2022/09/28 00:29:40;;;;;;;2.37;1.20;;;10.00;98.00;;;;;;5052557;28;20459;-67
2022/09/28 00:32:11;;;;;;;4.17;1.60;;;10.10;98.00;;;;;;5052379;28;20472;-67
2022/09/28 00:34:44;;;;;;;2.23;1.60;;;10.20;98.00;;;;;;5052335;28;20838;-67
2022/09/28 00:37:12;;;;;;;1.20;1.00;;;10.30;98.00;;;;;;5052116;28;20458;-67
2022/09/28 00:39:41;;;;;;;1.40;1.07;;;10.40;98.00;;;;;;5052266;28;20463;-66
2022/09/28 00:42:13;;;;;;;1.30;1.07;;;10.30;98.00;;;;;;5051909;28;20526;-67
2022/09/28 00:44:46;;;;;;;1.90;1.10;;;10.20;98.00;;;;;;5052440;28;20481;-67
2022/09/28 00:47:25;;;;;;;1.40;1.20;;;10.20;98.00;;;;;;5051671;28;20461;-66
2022/09/28 00:49:58;;;;;;;1.50;1.10;;;10.10;98.00;;;;;;5052346;28;20514;-67
2022/09/28 00:52:30;;;;;;;1.70;1.40;;;10.10;98.00;;;;;;5052039;28;20460;-67
2022/09/28 00:55:00;;;;;;;4.27;2.43;;;10.00;98.00;;;;;;5051837;28;20483;-66
2022/09/28 00:57:29;;;;;;;1.30;1.10;;;10.00;98.00;;;;;;5034529;28;20910;-67
2022/09/28 00:59:59;;;;;;;1.57;1.40;;;10.00;98.00;;;;;;5051745;28;20695;-67
2022/09/28 01:02:26;;;;;;;1.20;1.10;;;10.10;98.00;;;;;;5051876;28;20460;-67
2022/09/28 01:04:54;;;;;;;1.17;1.00;;;10.00;98.00;;;;;;5051455;28;20446;-67
2022/09/28 01:07:22;;;;;;;1.87;1.10;;;10.10;98.00;;;;;;5051621;28;20458;-66
2022/09/28 01:09:50;;;;;;;1.53;1.20;;;10.10;98.00;;;;;;5051841;28;20829;-67
2022/09/28 01:12:17;;;;;;;1.53;1.20;;;10.20;98.00;;;;;;5051598;28;20451;-67
2022/09/28 01:14:45;;;;;;;1.97;1.60;;;10.10;98.00;;;;;;5051743;28;20648;-67
2022/09/28 01:17:15;;;;;;;1.87;1.17;;;10.20;98.00;;;;;;5051650;28;20872;-67
2022/09/28 01:20:15;;;;;;;1.20;1.00;;;10.20;98.00;;;;;;5051609;28;20472;-67
2022/09/28 01:23:11;;;;;;;1.40;1.10;;;10.30;98.00;;;;;;5051408;28;20464;-67
2022/09/28 01:25:45;;;;;;;1.20;1.00;;;10.40;98.00;;;;;;5051414;28;20963;-67
2022/09/28 01:28:16;;;;;;;1.60;1.10;;;10.50;98.00;;;;;;5034580;28;20874;-67
2022/09/28 01:30:47;;;;;;;1.20;1.10;;;10.60;98.00;;;;;;5051399;28;20468;-67
2022/09/28 01:33:20;;;;;;;1.77;1.40;;;10.50;98.00;;;;;;5051428;28;20472;-67
2022/09/28 01:35:52;;;;;;;2.03;1.10;;;10.50;98.00;;;;;;5051153;28;20493;-67
2022/09/28 01:38:22;;;;;;;1.20;1.10;;;10.30;98.00;;;;;;5051306;28;20469;-67
2022/09/28 01:40:53;;;;;;;1.20;1.00;;;10.30;98.00;;;;;;5051132;28;21002;-66
2022/09/28 01:43:24;;;;;;;1.10;1.00;;;10.20;98.00;;;;;;5051155;28;20469;-67
2022/09/28 01:46:00;;;;;;;1.10;0.90;;;10.20;98.00;;;;;;5051100;28;20449;-66
2022/09/28 01:48:33;;;;;;;1.20;1.10;;;10.30;98.00;;;;;;5051658;28;20488;-67
2022/09/28 01:51:07;;;;;;;1.30;1.00;;;10.40;98.00;;;;;;5051655;28;20468;-67
2022/09/28 01:53:39;;;;;;;4.77;1.20;;;10.40;98.00;;;;;;5051295;28;20468;-66
2022/09/28 01:56:12;;;;;;;1.20;1.07;;;10.40;98.00;;;;;;5051049;28;20899;-67
2022/09/28 01:58:44;;;;;;;1.67;1.07;;;10.40;98.00;;;;;;5050991;28;20470;-67
2022/09/28 02:01:18;;;;;;;1.30;1.07;;;10.40;98.00;;;;;;5051098;28;20796;-67
2022/09/28 02:03:51;;;;;;;1.17;1.00;;;10.40;98.00;;;;;;5051137;28;20461;-67
2022/09/28 02:06:24;;;;;;;1.20;1.00;;;10.40;98.00;;;;;;5051013;28;20514;-67
2022/09/28 02:08:54;;;;;;;1.50;1.10;;;10.50;98.00;;;;;;5051035;28;20461;-67
2022/09/28 02:11:22;;;;;;;1.33;1.20;;;10.50;98.00;;;;;;5050987;28;20837;-67
2022/09/28 02:13:56;;;;;;;1.67;1.07;;;10.50;98.00;;;;;;5050779;28;20457;-67
2022/09/28 02:16:32;;;;;;;1.20;1.00;;;10.50;98.00;;;;;;5050761;28;20531;-67
2022/09/28 02:18:59;;;;;;;1.30;1.03;;;10.70;98.00;;;;;;5050804;28;20949;-67
2022/09/28 02:21:29;;;;;;;1.20;1.10;;;10.80;98.00;;;;;;5050814;28;20924;-66
2022/09/28 02:23:59;;;;;;;1.20;1.00;;;10.70;98.00;;;;;;5050937;28;20458;-67
2022/09/28 02:26:31;;;;;;;1.20;1.00;;;10.80;98.00;;;;;;5050850;28;20449;-67
2022/09/28 02:29:00;;;;;;;1.20;1.00;;;10.70;98.00;;;;;;5050608;28;20553;-66
2022/09/28 02:31:28;;;;;;;6.23;1.23;;;10.80;98.00;;;;;;5053043;28;20458;-67
2022/09/28 02:33:57;;;;;;;1.20;1.00;;;10.80;98.00;;;;;;5054485;28;20461;-67
2022/09/28 02:36:28;;;;;;;1.17;0.90;;;10.70;98.00;;;;;;5054457;28;20492;-67
2022/09/28 02:38:57;;;;;;;1.40;1.10;;;10.70;98.00;;;;;;5054516;28;20511;-67
2022/09/28 02:41:35;;;;;;;1.20;1.00;;;10.80;98.00;;;;;;5054468;28;20862;-67
2022/09/28 02:44:19;;;;;;;1.50;1.30;;;10.80;98.00;;;;;;5054394;28;20463;-67
2022/09/28 02:46:53;;;;;;;1.17;1.00;;;10.80;98.00;;;;;;5054309;28;20467;-67
2022/09/28 02:49:30;;;;;;;1.10;0.90;;;10.80;98.00;;;;;;5054601;28;20463;-66
2022/09/28 02:52:12;;;;;;;1.20;1.07;;;10.80;98.00;;;;;;5054349;28;20551;-67
2022/09/28 02:54:55;;;;;;;1.30;1.00;;;10.80;98.00;;;;;;5054435;28;20479;-66
2022/09/28 02:57:33;;;;;;;1.20;1.00;;;10.90;98.00;;;;;;5054154;28;20579;-66
2022/09/28 03:00:09;;;;;;;1.10;1.00;;;10.90;98.00;;;;;;5054112;28;20465;-67
2022/09/28 03:02:44;;;;;;;3.00;1.10;;;10.90;98.00;;;;;;5054106;28;20859;-66
2022/09/28 03:05:16;;;;;;;1.20;1.10;;;10.90;98.00;;;;;;5054074;28;20751;-67
2022/09/28 03:07:52;;;;;;;1.53;1.27;;;10.80;98.00;;;;;;5053866;28;21551;-67
2022/09/28 03:10:25;;;;;;;1.80;1.10;;;10.90;98.00;;;;;;5053992;28;20460;-67
2022/09/28 03:12:54;;;;;;;1.20;1.10;;;10.90;98.00;;;;;;5053691;28;20473;-67
2022/09/28 03:15:24;;;;;;;7.53;1.30;;;10.90;98.00;;;;;;5053774;28;20869;-67
2022/09/28 03:17:51;;;;;;;1.30;1.10;;;10.90;98.00;;;;;;5053680;28;20951;-67
2022/09/28 03:20:18;;;;;;;1.30;1.20;;;10.90;98.00;;;;;;5053846;28;20487;-67
2022/09/28 03:22:46;;;;;;;1.17;1.00;;;10.90;98.00;;;;;;5053598;28;20462;-67
2022/09/28 03:25:14;;;;;;;1.30;1.10;;;11.00;98.00;;;;;;5053645;28;20956;-67
2022/09/28 03:27:41;;;;;;;1.40;1.10;;;11.10;98.00;;;;;;5053553;28;20898;-67
2022/09/28 03:30:10;;;;;;;2.27;1.10;;;11.10;98.00;;;;;;5053545;28;20496;-67
2022/09/28 03:32:41;;;;;;;3.20;1.73;;;11.10;98.00;;;;;;5053636;28;20956;-67
2022/09/28 03:35:10;;;;;;;1.20;1.00;;;11.10;98.00;;;;;;5053479;28;21108;-67
2022/09/28 03:37:38;;;;;;;1.20;1.10;;;11.00;98.00;;;;;;5053319;28;20535;-66
2022/09/28 03:40:06;;;;;;;1.60;1.43;;;11.00;98.00;;;;;;5053378;28;20549;-67
2022/09/28 03:42:36;;;;;;;1.20;1.10;;;11.00;98.00;;;;;;5052598;28;20473;-67
2022/09/28 03:45:04;;;;;;;1.13;1.00;;;11.00;98.00;;;;;;5052488;28;20490;-67
2022/09/28 03:47:31;;;;;;;1.20;1.20;;;11.00;98.00;;;;;;5052156;28;20454;-67
2022/09/28 03:50:00;;;;;;;1.20;1.00;;;11.00;98.00;;;;;;5052522;28;20607;-67
2022/09/28 03:52:27;;;;;;;1.40;1.20;;;11.00;98.00;;;;;;5034862;28;20465;-67
2022/09/28 03:54:54;;;;;;;1.10;1.00;;;11.00;98.00;;;;;;5052037;28;20460;-66
2022/09/28 03:57:21;;;;;;;1.67;1.23;;;11.00;98.00;;;;;;5052061;28;20488;-66
2022/09/28 03:59:48;;;;;;;1.27;1.13;;;11.00;98.00;;;;;;5051910;28;20446;-67
2022/09/28 04:02:16;;;;;;;1.50;1.10;;;11.00;98.00;;;;;;5051833;28;20472;-67
2022/09/28 04:04:44;;;;;;;1.33;1.27;;;11.00;98.00;;;;;;5051972;28;20469;-67
2022/09/28 04:07:12;;;;;;;1.10;1.00;;;11.00;98.00;;;;;;5034122;28;20520;-67
2022/09/28 04:09:39;;;;;;;1.87;1.47;;;11.00;98.00;;;;;;5051677;28;20772;-67
2022/09/28 04:12:08;;;;;;;1.23;1.13;;;10.90;98.00;;;;;;5051706;28;20460;-67
2022/09/28 04:14:35;;;;;;;1.20;1.10;;;10.90;98.00;;;;;;5051885;28;21083;-67
2022/09/28 04:17:03;;;;;;;1.10;1.00;;;10.90;98.00;;;;;;5051450;28;20496;-67
2022/09/28 04:19:30;;;;;;;1.97;1.20;;;10.90;98.00;;;;;;5051612;28;20457;-67
2022/09/28 04:21:57;;;;;;;1.10;1.00;;;10.90;98.00;;;;;;5051341;28;20457;-67
2022/09/28 04:24:25;;;;;;;2.10;1.20;;;10.90;98.00;;;;;;5051522;28;20861;-67
2022/09/28 04:29:14;;;;;;;1.20;1.10;;;10.90;98.00;;;;;;5051282;28;20503;-67
2022/09/28 04:29:42;;;;;;;1.20;1.20;;;10.90;98.00;;;;;;5036564;28;20501;-67
2022/09/28 04:32:10;;;;;;;1.50;1.40;;;10.90;98.00;;;;;;5051590;28;20470;-67
2022/09/28 04:34:37;;;;;;;1.30;1.10;;;10.90;98.00;;;;;;5051373;28;20488;-67
2022/09/28 04:37:05;;;;;;;1.40;1.40;;;10.80;98.00;;;;;;5051245;28;20487;-67
2022/09/28 04:39:33;;;;;;;1.10;0.90;;;10.70;98.00;;;;;;5051504;28;20650;-66
2022/09/28 04:42:00;;;;;;;1.10;0.90;;;10.70;98.00;;;;;;5006875;28;1272230;-67
2022/09/28 04:44:27;;;;;;;1.10;1.00;;;10.70;98.00;;;;;;5052460;28;20575;-67
2022/09/28 04:46:55;;;;;;;1.27;1.10;;;10.60;98.00;;;;;;5052217;28;20481;-67
2022/09/28 04:49:23;;;;;;;1.10;0.97;;;10.40;98.00;;;;;;5052287;28;20471;-67
2022/09/28 04:51:55;;;;;;;1.10;0.90;;;10.50;98.00;;;;;;5051967;28;20450;-67
2022/09/28 04:54:22;;;;;;;3.37;1.33;;;10.50;98.00;;;;;;5051719;28;20576;-66
2022/09/28 04:56:51;;;;;;;1.20;1.10;;;10.40;98.00;;;;;;5051827;28;20486;-67
2022/09/28 04:59:18;;;;;;;1.20;1.17;;;10.40;98.00;;;;;;5051990;28;20461;-67
2022/09/28 05:01:46;;;;;;;1.10;1.07;;;10.30;98.00;;;;;;5034400;28;20465;-67
2022/09/28 05:04:13;;;;;;;1.27;1.00;;;10.20;98.00;;;;;;5051690;28;20815;-67
2022/09/28 05:06:40;;;;;;;1.10;1.00;;;10.20;98.00;;;;;;5051613;28;20458;-67
2022/09/28 05:09:08;;;;;;;1.53;1.20;;;10.40;98.00;;;;;;5051723;28;20457;-67
2022/09/28 05:11:35;;;;;;;1.20;1.03;;;10.50;98.00;;;;;;5049492;28;20544;-67
2022/09/28 05:14:04;;;;;;;1.10;0.90;;;10.40;98.00;;;;;;5051710;28;20460;-67
2022/09/28 05:16:32;;;;;;;1.20;1.10;;;10.40;98.00;;;;;;5051400;28;20527;-67
2022/09/28 05:19:00;;;;;;;1.47;1.30;;;10.40;98.00;;;;;;5051538;28;20934;-67
2022/09/28 05:21:28;;;;;;;1.60;1.50;;;10.50;98.00;;;;;;5051479;28;20457;-67
2022/09/28 05:23:57;;;;;;;1.10;1.10;;;10.50;98.00;;;;;;5050707;28;20454;-68
2022/09/28 05:26:25;;;;;;;1.10;1.00;;;10.60;98.00;;;;;;5051510;28;20464;-67
2022/09/28 05:28:52;;;;;;;1.10;1.00;;;10.60;98.00;;;;;;5051340;28;20461;-64
2022/09/28 05:31:22;;;;;;;1.10;0.90;;;10.70;98.00;;;;;;5051213;28;20464;-65
2022/09/28 05:33:49;;;;;;;1.10;1.00;;;10.70;98.00;;;;;;5051338;28;20461;-65
2022/09/28 05:36:16;;;;;;;2.83;1.10;;;10.60;98.00;;;;;;5051328;28;20850;-65
2022/09/28 05:38:43;;;;;;;1.80;1.33;;;10.60;98.00;;;;;;5051257;28;20451;-65
2022/09/28 05:41:10;;;;;;;1.10;1.00;;;10.50;98.00;;;;;;5051085;28;20465;-65
2022/09/28 05:43:37;;;;;;;1.40;1.10;;;10.60;98.00;;;;;;5051226;28;20461;-65
2022/09/28 05:46:05;;;;;;;1.40;1.17;;;10.50;98.00;;;;;;5033783;28;20506;-65
2022/09/28 05:48:33;;;;;;;1.10;0.90;;;10.40;98.00;;;;;;5051443;28;20522;-65
2022/09/28 05:51:00;;;;;;;1.30;1.00;;;10.40;98.00;;;;;;5051042;28;20455;-65
2022/09/28 05:53:28;;;;;;;1.20;1.00;;;10.50;98.00;;;;;;5051502;28;20812;-65
2022/09/28 05:55:58;;;;;;;1.10;1.00;;;10.50;98.00;;;;;;5051001;28;20853;-65
2022/09/28 05:58:25;;;;;;;1.20;1.10;;;10.60;98.00;;;;;;5050964;28;20574;-65
2022/09/28 06:00:54;;;;;;;1.10;0.90;;;10.50;98.00;;;;;;5041845;28;20462;-65
2022/09/28 06:03:22;;;;;;;1.20;1.00;;;10.60;98.00;;;;;;5050780;28;20472;-65
2022/09/28 06:05:50;;;;;;;1.50;1.10;;;10.60;98.00;;;;;;5052398;28;20557;-65
2022/09/28 06:08:18;;;;;;;1.20;1.00;;;10.70;98.00;;;;;;5055078;28;20495;-65
2022/09/28 06:10:45;;;;;;;1.50;0.90;;;10.70;98.00;;;;;;5054968;28;20460;-65
2022/09/28 06:13:12;;;;;;;8.20;1.23;;;10.60;98.00;;;;;;5053474;28;20951;-65
2022/09/28 06:15:42;;;;;;;1.20;1.00;;;10.60;98.00;;;;;;5054940;28;20515;-65
2022/09/28 06:18:13;;;;;;;1.67;1.00;;;10.60;98.00;;;;;;5054593;28;20486;-65
2022/09/28 06:20:41;;;;;;;1.20;1.00;;;10.60;98.00;;;;;;5054986;28;20465;-66
2022/09/28 06:23:10;;;;;;;1.60;1.20;;;10.60;98.00;;;;;;5073124;28;20452;-65
2022/09/28 06:25:37;;;;;;;1.20;1.00;;;10.70;98.00;;;;;;5074679;28;20457;-65
2022/09/28 06:28:06;;;;;;;3.77;1.10;;;10.70;98.00;;;;;;5056589;28;20488;-65
2022/09/28 06:30:37;;;;;;;1.80;1.10;;;10.70;98.00;;;;;;5074678;28;20464;-65
2022/09/28 06:33:05;;;;;;;2.10;1.13;;;10.80;98.00;;;;;;5057136;28;20490;-65
2022/09/28 06:35:32;;;;;;;1.13;1.00;;;10.70;98.00;;;;;;5074557;28;20537;-65
2022/09/28 06:38:00;;;;;;;1.17;1.07;;;10.70;98.00;;;;;;5074499;28;21014;-65
2022/09/28 06:40:29;;;;;;;1.40;1.00;;;10.80;98.00;;;;;;5074612;28;20462;-65
2022/09/28 06:42:57;;;;;;;1.30;1.00;;;10.70;98.00;;;;;;5056440;28;20473;-65
2022/09/28 06:45:24;;;;;;;1.10;1.00;;;10.70;98.00;;;;;;5063958;28;20835;-65
2022/09/28 06:47:57;;;;;;;1.13;1.00;;;10.60;98.00;;;;;;5051773;28;20464;-65
2022/09/28 06:50:25;;;;;;;1.20;1.10;;;10.70;98.00;;;;;;5048160;28;20515;-65
2022/09/28 06:52:53;;;;;;;1.10;1.00;;;10.70;98.00;;;;;;5052201;28;20520;-65
2022/09/28 06:55:20;;;;;;;1.10;1.00;;;10.80;98.00;;;;;;5052160;28;21276;-65
2022/09/28 06:58:03;;;;;;;1.20;1.10;;;10.80;98.00;;;;;;5052166;28;20496;-65
2022/09/28 07:00:32;;;;;;;1.20;1.20;;;10.70;98.00;;;;;;5051552;28;20501;-65
2022/09/28 07:03:03;;;;;;;1.10;1.00;;;10.90;98.00;;;;;;5052252;28;20540;-64
2022/09/28 07:05:34;;;;;;;1.73;1.10;;;10.90;98.00;;;;;;5051203;28;20881;-65
2022/09/28 07:08:02;;;;;;;1.20;1.10;;;10.90;98.00;;;;;;5051774;28;20453;-65
2022/09/28 07:10:30;;;;;;;1.40;1.30;;;10.90;98.00;;;;;;5034264;28;20545;-65
2022/09/28 07:13:01;;;;;;;1.20;1.10;;;10.90;98.00;;;;;;5048427;28;20943;-65
2022/09/28 07:15:29;;;;;;;1.23;1.20;;;10.90;98.00;;;;;;5049812;28;20503;-65
2022/09/28 07:17:58;;;;;;;1.10;1.10;;;11.00;98.00;;;;;;5051241;28;20529;-65
2022/09/28 07:20:25;;;;;;;1.63;1.10;;;11.10;98.00;;;;;;5051237;28;21034;-65
2022/09/28 07:22:54;;;;;;;1.20;1.10;;;11.00;98.00;;;;;;5049689;28;20544;-65
2022/09/28 07:25:21;;;;;;;1.87;1.13;;;11.00;98.00;;;;;;5032416;28;20465;-65
2022/09/28 07:27:48;;;;;;;1.17;1.03;;;11.00;98.00;;;;;;5053127;28;20456;-66
2022/09/28 07:30:17;;;;;;;2.60;1.30;;;11.10;98.00;;;;;;5055515;28;20453;-65
2022/09/28 07:32:45;;;;;;;1.40;1.30;;;11.10;98.00;;;;;;5051119;28;21134;-65
2022/09/28 07:35:12;;;;;;;2.07;1.50;;;11.10;98.00;;;;;;5051042;28;20664;-66
2022/09/28 07:37:39;;;;;;;1.40;1.20;;;11.10;98.00;;;;;;5050724;28;20492;-65
2022/09/28 07:42:53;;;;;;;1.83;1.43;;;11.10;98.00;;;;;;5050856;28;20457;-65
2022/09/28 07:45:22;;;;;;;1.70;1.40;;;11.20;98.00;;;;;;5051244;28;20487;-66
2022/09/28 07:47:49;;;;;;;1.83;1.30;;;11.20;98.00;;;;;;5051091;28;20947;-65
2022/09/28 07:50:19;;;;;;;1.40;1.40;;;11.20;98.00;;;;;;5050699;28;20458;-65
2022/09/28 07:52:46;;;;;;;1.10;1.10;;;11.20;98.00;;;;;;5052667;28;20792;-65
2022/09/28 07:55:14;;;;;;;1.70;1.40;;;11.30;98.00;;;;;;5050799;28;20458;-65
2022/09/28 07:57:41;;;;;;;1.30;1.30;;;11.30;98.00;;;;;;5050592;28;20861;-65
2022/09/28 08:00:09;;;;;;;1.30;1.13;;;11.50;98.00;;;;;;5050787;28;20468;-65
2022/09/28 08:02:38;;;;;;;1.37;1.10;;;11.50;98.00;;;;;;5050496;28;20464;-65
2022/09/28 08:05:08;;;;;;;1.63;1.40;;;11.40;98.00;;;;;;5032748;28;20445;-65
2022/09/28 08:07:37;;;;;;;1.60;1.40;;;11.50;98.00;;;;;;5050424;28;20454;-65
2022/09/28 08:10:05;;;;;;;1.70;1.20;;;11.50;98.00;;;;;;5050492;28;20509;-65
2022/09/28 08:12:32;;;;;;;1.30;1.10;;;11.60;98.00;;;;;;5032436;28;20975;-65
2022/09/28 08:15:03;;;;;;;1.40;1.30;;;11.40;98.00;;;;;;5050169;28;20540;-65
2022/09/28 08:17:30;;;;;;;1.50;1.40;;;11.30;98.00;;;;;;5050108;28;21057;-65
2022/09/28 08:22:44;;;;;;;2.63;1.30;;;11.50;98.00;;;;;;5050384;28;20471;-66
2022/09/28 08:25:11;;;;;;;4.80;1.40;;;11.60;98.00;;;;;;5050841;28;20460;-65
2022/09/28 08:27:38;;;;;;;1.10;1.00;;;11.70;98.00;;;;;;5049223;28;20821;-65
2022/09/28 08:30:07;;;;;;;1.30;1.20;;;11.80;98.00;;;;;;5050252;28;20465;-65
2022/09/28 08:32:34;;;;;;;1.40;1.30;;;11.80;98.00;;;;;;5050084;28;20469;-65
2022/09/28 08:35:06;;;;;;;3.00;1.60;;;11.90;98.00;;;;;;5052483;28;20466;-65
2022/09/28 08:37:33;;;;;;;1.50;1.30;;;12.00;98.00;;;;;;5052640;28;20532;-65
2022/09/28 08:40:00;;;;;;;2.23;1.47;;;11.90;98.00;;;;;;5052075;28;20497;-65
2022/09/28 08:42:35;;;;;;;2.07;1.43;;;11.90;98.00;;;;;;5052268;28;20469;-65
2022/09/28 08:45:10;;;;;;;1.50;1.40;;;11.90;98.00;;;;;;5052358;28;20455;-65
2022/09/28 08:50:41;;;;;;;2.23;1.37;;;11.80;98.00;;;;;;5052162;28;20460;-66
2022/09/28 08:53:21;;;;;;;1.30;1.30;;;11.70;98.00;;;;;;5052062;28;20463;-65
2022/09/28 08:55:49;;;;;;;3.17;1.40;;;11.80;98.00;;;;;;5051884;28;20465;-65
2022/09/28 08:58:22;;;;;;;1.40;1.20;;;11.70;98.00;;;;;;5051751;28;20491;-65
2022/09/28 09:00:52;;;;;;;1.20;1.20;;;11.70;98.00;;;;;;5051845;28;20458;-65
2022/09/28 09:03:26;;;;;;;1.50;1.37;;;11.80;98.00;;;;;;5051787;28;20456;-65
2022/09/28 09:06:05;;;;;;;1.70;1.40;;;11.90;98.00;;;;;;5051706;28;20454;-65
2022/09/28 09:08:50;;;;;;;1.60;1.20;;;12.10;98.00;;;;;;5052176;28;20463;-65
2022/09/28 09:11:31;;;;;;;1.73;1.33;;;12.30;98.00;;;;;;5051592;28;20518;-65
2022/09/28 09:14:34;;;;;;;1.60;1.40;;;12.50;98.00;;;;;;5051773;28;20826;-65
2022/09/28 09:17:06;;;;;;;5.53;1.67;;;12.50;98.00;;;;;;5035579;28;20460;-65
2022/09/28 09:19:40;;;;;;;1.50;1.40;;;12.50;98.00;;;;;;5051675;28;20458;-64
2022/09/28 09:22:16;;;;;;;2.10;1.30;;;12.60;98.00;;;;;;5051345;28;20481;-64
2022/09/28 09:24:50;;;;;;;1.70;1.40;;;12.70;98.00;;;;;;5051546;28;20454;-65
2022/09/28 09:27:41;;;;;;;1.50;1.50;;;12.70;98.00;;;;;;5051569;28;20553;-66
2022/09/28 09:30:11;;;;;;;1.43;1.37;;;12.60;98.00;;;;;;5051573;28;20520;-65
2022/09/28 09:32:52;;;;;;;10.80;1.50;;;12.50;98.00;;;;;;5051355;28;20965;-65
2022/09/28 09:35:44;;;;;;;1.63;1.50;;;12.60;98.00;;;;;;5017331;28;20458;-65
2022/09/28 09:38:33;;;;;;;1.33;1.23;;;12.70;98.00;;;;;;5051511;28;20480;-65
2022/09/28 09:41:16;;;;;;;1.57;1.40;;;12.90;98.00;;;;;;5051438;28;20454;-65
2022/09/28 09:44:13;;;;;;;1.30;1.17;;;12.90;98.00;;;;;;5051570;28;20882;-66
2022/09/28 09:46:46;;;;;;;1.60;1.40;;;13.00;98.00;;;;;;5049714;28;20512;-65
2022/09/28 09:49:18;;;;;;;1.93;1.53;;;13.00;98.00;;;;;;5051262;28;20465;-65
2022/09/28 09:51:52;;;;;;;1.87;1.40;;;13.00;98.00;;;;;;5051009;28;21063;-65
2022/09/28 09:54:27;;;;;;;2.67;2.50;;;13.00;98.00;;;;;;5051161;28;20457;-66
2022/09/28 09:57:00;;;;;;;2.00;1.60;;;13.10;98.00;;;;;;5050973;28;20459;-66
2022/09/28 09:59:35;;;;;;;2.00;1.70;;;13.20;98.00;;;;;;5050989;28;20487;-65
2022/09/28 10:02:03;;;;;;;2.23;1.60;;;13.20;98.00;;;;;;5050976;28;20458;-65
2022/09/28 10:04:37;;;;;;;1.40;1.30;;;13.30;98.00;;;;;;5051128;28;20461;-65
2022/09/28 10:07:06;;;;;;;1.33;1.10;;;13.30;98.00;;;;;;5050942;28;20869;-65
2022/09/28 10:09:41;;;;;;;1.20;1.10;;;13.40;98.00;;;;;;5050958;28;20466;-65
2022/09/28 10:12:10;;;;;;;1.20;1.20;;;13.30;98.00;;;;;;5050811;28;20466;-65
2022/09/28 10:14:37;;;;;;;1.30;1.30;;;13.40;98.00;;;;;;5050808;28;20459;-65
2022/09/28 10:17:05;;;;;;;1.73;1.43;;;13.50;98.00;;;;;;5050769;28;20471;-65
2022/09/28 10:19:34;;;;;;;3.47;1.53;;;13.40;98.00;;;;;;5050893;28;20492;-65
2022/09/28 10:22:05;;;;;;;3.80;1.60;;;13.20;98.00;;;;;;5050751;28;20522;-65
2022/09/28 10:24:35;;;;;;;1.30;1.20;;;13.20;98.00;;;;;;5050905;28;20467;-65
2022/09/28 10:27:07;;;;;;;1.60;1.23;;;13.20;98.00;;;;;;5032985;28;20525;-66
2022/09/28 10:29:45;;;;;;;2.13;1.63;;;13.20;98.00;;;;;;5050701;28;20959;-65
2022/09/28 10:32:22;;;;;;;1.40;1.03;;;13.30;98.00;;;;;;5050721;28;20463;-65
2022/09/28 10:34:51;;;;;;;1.33;1.23;;;13.30;98.00;;;;;;5050860;28;20454;-65
2022/09/28 10:37:18;;;;;;;1.73;1.30;;;13.40;98.00;;;;;;5051030;28;20858;-65
2022/09/28 10:39:50;;;;;;;2.60;1.50;;;13.30;98.00;;;;;;5051149;28;20996;-65
2022/09/28 10:42:23;;;;;;;1.40;1.20;;;13.20;98.00;;;;;;5050870;28;20506;-65
2022/09/28 10:45:01;;;;;;;1.87;1.40;;;13.30;98.00;;;;;;5050672;28;20498;-65
2022/09/28 10:47:31;;;;;;;1.40;1.30;;;13.30;98.00;;;;;;5050636;28;20865;-65
2022/09/28 10:50:04;;;;;;;1.97;1.40;;;13.40;98.00;;;;;;5050879;28;20500;-65
2022/09/28 10:52:38;;;;;;;3.70;1.50;;;13.30;98.00;;;;;;5053087;28;20460;-66
2022/09/28 10:55:29;;;;;;;1.83;1.40;;;13.20;98.00;;;;;;5054144;28;20460;-65
2022/09/28 10:57:58;;;;;;;3.70;1.50;;;13.30;98.00;;;;;;5053983;28;20490;-65
2022/09/28 11:00:34;;;;;;;2.30;1.77;;;13.40;98.00;;;;;;5054069;28;20974;-65
2022/09/28 11:03:03;;;;;;;1.70;1.20;;;13.40;98.00;;;;;;5054220;28;20517;-66
2022/09/28 11:05:31;;;;;;;2.80;1.40;;;13.50;98.00;;;;;;5054314;28;20534;-65
2022/09/28 11:08:00;;;;;;;1.97;1.50;;;13.60;98.00;;;;;;5053906;28;20945;-65
2022/09/28 11:10:30;;;;;;;1.53;1.40;;;13.60;98.00;;;;;;5053997;28;20454;-65
2022/09/28 11:13:00;;;;;;;1.40;1.23;;;13.60;98.00;;;;;;5053807;28;20457;-66
2022/09/28 11:15:30;;;;;;;2.00;1.43;;;13.70;98.00;;;;;;5053762;28;20451;-65
2022/09/28 11:18:21;;;;;;;2.07;1.40;;;13.60;98.00;;;;;;5053692;28;20466;-66
2022/09/28 11:20:48;;;;;;;2.33;1.53;;;13.70;98.00;;;;;;5053742;28;20507;-65
2022/09/28 11:23:19;;;;;;;1.60;1.40;;;13.60;98.00;;;;;;5035954;28;20456;-65
2022/09/28 11:25:58;;;;;;;1.50;1.40;;;13.60;98.00;;;;;;5053837;28;20463;-66
2022/09/28 11:28:31;;;;;;;1.60;1.30;;;13.70;98.00;;;;;;5053552;28;20455;-66
2022/09/28 11:30:59;;;;;;;1.90;1.63;;;13.80;98.00;;;;;;5053744;28;21040;-65
2022/09/28 11:33:32;;;;;;;1.60;1.23;;;13.90;98.00;;;;;;5053404;28;20541;-66
2022/09/28 11:36:09;;;;;;;2.10;1.50;;;14.00;98.00;;;;;;5053770;28;20557;-65
2022/09/28 11:38:40;;;;;;;1.30;1.30;;;14.20;98.00;;;;;;5053390;28;20481;-65
2022/09/28 11:41:21;;;;;;;1.50;1.27;;;14.30;98.00;;;;;;5053374;28;20459;-65
2022/09/28 11:44:12;;;;;;;1.93;1.60;;;14.40;98.00;;;;;;5053431;28;20478;-66
2022/09/28 11:46:51;;;;;;;1.47;1.40;;;14.60;98.00;;;;;;5053334;28;20531;-65
2022/09/28 11:49:30;;;;;;;1.40;1.27;;;14.80;98.00;;;;;;5053526;28;20828;-66
2022/09/28 11:52:00;;;;;;;2.90;1.40;;;14.50;98.00;;;;;;5053482;28;20509;-65
2022/09/28 11:54:32;;;;;;;1.43;1.30;;;14.50;98.00;;;;;;5053410;28;20518;-66
2022/09/28 11:57:03;;;;;;;2.83;1.53;;;14.50;98.00;;;;;;5053026;28;20551;-64
2022/09/28 11:59:35;;;;;;;1.63;1.40;;;14.60;98.00;;;;;;5052967;28;21033;-65
2022/09/28 12:02:12;;;;;;;1.50;1.20;;;14.80;98.00;;;;;;5053035;28;20465;-65
2022/09/28 12:04:42;;;;;;;1.50;1.30;;;14.70;98.00;;;;;;5034813;28;20871;-65
2022/09/28 12:07:15;;;;;;;1.50;1.23;;;14.70;98.00;;;;;;5053114;28;20488;-65
2022/09/28 12:09:50;;;;;;;1.70;1.40;;;14.80;98.00;;;;;;5053073;28;20456;-65
2022/09/28 12:12:24;;;;;;;1.80;1.47;;;15.00;98.00;;;;;;5052923;28;20469;-65
2022/09/28 12:14:56;;;;;;;3.00;1.50;;;15.10;98.00;;;;;;5053102;28;20877;-65
2022/09/28 12:17:26;;;;;;;4.60;1.50;;;15.10;98.00;;;;;;5052787;28;20504;-65
2022/09/28 12:20:01;;;;;;;1.30;1.07;;;15.10;98.00;;;;;;5052786;28;20497;-65
2022/09/28 12:22:34;;;;;;;1.33;1.30;;;15.20;98.00;;;;;;5035828;28;20468;-65
2022/09/28 12:25:10;;;;;;;1.80;1.30;;;15.20;98.00;;;;;;5052658;28;20455;-65
2022/09/28 12:27:42;;;;;;;1.70;1.30;;;15.30;98.00;;;;;;5052458;28;20452;-65
2022/09/28 12:30:18;;;;;;;1.73;1.33;;;15.40;98.00;;;;;;5052592;28;20461;-65
2022/09/28 12:32:49;;;;;;;2.63;1.60;;;15.50;98.00;;;;;;5052502;28;20457;-65
2022/09/28 12:35:24;;;;;;;4.70;2.07;;;15.50;98.00;;;;;;5052948;28;20551;-65
2022/09/28 12:38:07;;;;;;;1.37;1.30;;;15.70;98.00;;;;;;5052634;28;20450;-65
2022/09/28 12:40:46;;;;;;;2.07;1.40;;;15.90;98.00;;;;;;5050289;28;20452;-66
2022/09/28 12:43:33;;;;;;;1.93;1.60;;;15.90;98.00;;;;;;5049688;28;20476;-65
2022/09/28 12:46:35;;;;;;;1.90;1.50;;;16.00;98.00;;;;;;5049755;28;20464;-66
2022/09/28 12:49:18;;;;;;;2.03;1.60;;;16.00;98.00;;;;;;5032294;28;20525;-66
2022/09/28 12:51:51;;;;;;;3.63;1.70;;;16.10;98.00;;;;;;5049916;28;20456;-65
2022/09/28 12:54:33;;;;;;;1.83;1.37;;;16.20;98.00;;;;;;5049837;28;20812;-65
2022/09/28 12:57:14;;;;;;;1.40;1.30;;;16.20;98.00;;;;;;5049737;28;20467;-66
2022/09/28 12:59:52;;;;;;;1.87;1.57;;;16.20;98.00;;;;;;5048799;28;20539;-65
2022/09/28 13:02:51;;;;;;;1.50;1.37;;;16.10;98.00;;;;;;5049403;28;20463;-66
2022/09/28 13:05:36;;;;;;;1.60;1.33;;;16.00;98.00;;;;;;5036075;28;20541;-65
2022/09/28 13:08:11;;;;;;;1.83;1.20;;;15.90;98.00;;;;;;5049379;28;20991;-66
2022/09/28 13:10:43;;;;;;;1.70;1.20;;;15.90;98.00;;;;;;5049509;28;20473;-66
2022/09/28 13:13:26;;;;;;;1.70;1.20;;;15.80;98.00;;;;;;5049519;28;20874;-65
2022/09/28 13:16:02;;;;;;;1.33;1.23;;;15.70;98.00;;;;;;5048788;28;20453;-65
2022/09/28 13:18:37;;;;;;;1.50;1.50;;;15.70;98.00;;;;;;5034563;28;20460;-65